Time;durP1;ratioP1;P1;durP2;ratioP2;P2;SDS_P1;SDS_P2;PMS_P1;PMS_P2;Temp;Humidity;BMP_temperature;BMP_pressure;BME280_temperature;BME280_humidity;BME280_pressure;Samples;Min_cycle;Max_cycle;Signal;HPM_P1;HPM_P2
2021/11/15 00:02:09;;;;;;;93.75;55.63;;;;;;;5.65;85.00;97441.45;1795112;80;21018;-82
2021/11/15 00:04:36;;;;;;;89.07;52.83;;;;;;;5.60;85.25;97442.31;1795049;80;20955;-82
2021/11/15 00:07:02;;;;;;;90.90;52.53;;;;;;;5.61;85.34;97446.05;1794957;80;21054;-82
2021/11/15 00:09:28;;;;;;;96.15;52.50;;;;;;;5.61;85.46;97443.47;1795096;80;21320;-82
2021/11/15 00:11:53;;;;;;;99.07;52.20;;;;;;;5.58;85.47;97442.91;1790300;79;21011;-82
2021/11/15 00:14:19;;;;;;;83.52;48.80;;;;;;;5.52;85.39;97447.25;1790148;80;20964;-82
2021/11/15 00:16:45;;;;;;;85.25;49.95;;;;;;;5.51;85.55;97453.36;1794908;80;20932;-82
2021/11/15 00:19:11;;;;;;;87.30;52.17;;;;;;;5.55;85.61;97452.19;1795073;80;21041;-82
2021/11/15 00:21:37;;;;;;;88.20;50.60;;;;;;;5.59;85.54;97453.09;1795131;80;20908;-82
2021/11/15 00:24:04;;;;;;;89.25;49.15;;;;;;;5.60;85.53;97454.73;1794893;80;21078;-82
2021/11/15 00:26:29;;;;;;;90.35;51.70;;;;;;;5.63;85.52;97457.53;1795071;80;21392;-82
2021/11/15 00:28:56;;;;;;;87.57;53.58;;;;;;;5.62;85.49;97455.42;1797481;80;21125;-82
2021/11/15 00:31:24;;;;;;;95.77;53.02;;;;;;;5.61;85.39;97458.13;1798043;80;21365;-82
2021/11/15 00:33:50;;;;;;;86.92;51.68;;;;;;;5.60;85.35;97454.73;1797428;80;20990;-82
2021/11/15 00:36:16;;;;;;;83.03;47.62;;;;;;;5.62;85.39;97459.29;1797652;80;20954;-82
2021/11/15 00:38:42;;;;;;;84.67;50.38;;;;;;;5.62;85.23;97462.34;1797960;80;21042;-82
2021/11/15 00:41:07;;;;;;;87.60;51.92;;;;;;;5.64;85.44;97460.45;1797889;80;21392;-82
2021/11/15 00:43:33;;;;;;;82.85;51.00;;;;;;;5.66;85.43;97463.72;1797734;80;21054;-82
2021/11/15 00:45:59;;;;;;;90.45;50.80;;;;;;;5.63;85.26;97460.11;1797883;80;21100;-82
2021/11/15 00:48:24;;;;;;;84.97;49.20;;;;;;;5.63;85.51;97461.39;1797839;80;21325;-82
2021/11/15 00:50:50;;;;;;;92.75;51.40;;;;;;;5.64;85.38;97458.69;1797941;80;20990;-82
2021/11/15 00:53:16;;;;;;;85.62;48.52;;;;;;;5.68;85.45;97457.96;1797955;80;20947;-82
2021/11/15 00:55:41;;;;;;;85.53;48.78;;;;;;;5.71;85.26;97459.84;1797841;80;21377;-82
2021/11/15 00:58:07;;;;;;;85.22;48.58;;;;;;;5.71;85.15;97461.61;1797693;80;21108;-82
2021/11/15 01:00:35;;;;;;;88.07;51.23;;;;;;;5.61;85.03;97456.84;1797825;80;21007;-82
2021/11/15 01:03:06;;;;;;;92.42;54.00;;;;;;;5.51;85.27;97458.52;1797774;80;20955;-82
2021/11/15 01:05:29;;;;;;;92.12;51.35;;;;;;;5.51;85.62;97459.80;1797241;80;20987;-82
2021/11/15 01:07:55;;;;;;;88.07;49.20;;;;;;;5.52;85.53;97460.96;1797728;80;21014;-82
2021/11/15 01:10:20;;;;;;;80.70;47.95;;;;;;;5.57;85.75;97463.19;1797662;80;21412;-82
2021/11/15 01:12:46;;;;;;;82.57;48.17;;;;;;;5.60;85.68;97456.02;1760861;80;21010;-82
2021/11/15 01:15:16;;;;;;;78.10;46.98;;;;;;;5.63;85.75;97465.27;1769354;80;21405;-82
2021/11/15 01:17:42;;;;;;;79.05;45.25;;;;;;;5.65;85.90;97460.80;1760158;81;20975;-83
2021/11/15 01:20:11;;;;;;;73.70;44.38;;;;;;;5.65;85.76;97456.45;1760390;81;21370;-82
2021/11/15 01:22:37;;;;;;;66.30;40.90;;;;;;;5.62;85.73;97460.58;1760099;81;21143;-82
2021/11/15 01:25:04;;;;;;;67.03;40.20;;;;;;;5.63;85.64;97452.38;1760285;81;21035;-82
2021/11/15 01:27:30;;;;;;;65.17;41.37;;;;;;;5.66;85.62;97455.98;1758686;81;20996;-82
2021/11/15 01:29:55;;;;;;;65.50;39.85;;;;;;;5.67;85.56;97457.14;1757203;81;21500;-83
2021/11/15 01:32:21;;;;;;;63.83;38.73;;;;;;;5.64;85.60;97459.16;1757211;81;21039;-82
2021/11/15 01:34:47;;;;;;;75.97;42.55;;;;;;;5.60;85.53;97460.36;1757268;81;21011;-82
2021/11/15 01:37:12;;;;;;;64.45;36.70;;;;;;;5.56;85.71;97467.53;1757322;81;21386;-82
2021/11/15 01:39:38;;;;;;;61.10;36.90;;;;;;;5.54;85.76;97464.27;1757270;81;20987;-82
2021/11/15 01:42:04;;;;;;;62.00;37.03;;;;;;;5.50;85.68;97469.30;1757053;81;20983;-82
2021/11/15 01:44:30;;;;;;;58.63;35.17;;;;;;;5.51;85.72;97469.64;1757277;81;21402;-82
2021/11/15 01:46:56;;;;;;;66.35;38.28;;;;;;;5.52;85.68;97476.91;1757266;82;21022;-82
2021/11/15 01:49:22;;;;;;;55.70;35.48;;;;;;;5.49;85.61;97473.28;1757262;81;20964;-82
2021/11/15 01:51:48;;;;;;;56.58;36.48;;;;;;;5.44;85.53;97481.40;1757255;81;20983;-82
2021/11/15 01:54:13;;;;;;;60.70;34.90;;;;;;;5.42;85.80;97480.70;1757249;82;21015;-82
2021/11/15 01:56:39;;;;;;;62.75;37.30;;;;;;;5.39;85.67;97488.69;1757262;81;20972;-82
2021/11/15 01:59:05;;;;;;;62.43;37.10;;;;;;;5.36;85.62;97487.15;1757276;81;21098;-82
2021/11/15 02:01:31;;;;;;;62.15;36.13;;;;;;;5.36;85.71;97489.73;1757277;81;20948;-82
2021/11/15 02:03:57;;;;;;;55.88;35.25;;;;;;;5.33;85.80;97489.16;1757356;82;20952;-82
2021/11/15 02:06:24;;;;;;;56.45;34.95;;;;;;;5.34;85.91;97490.32;1757016;82;20995;-82
2021/11/15 02:08:50;;;;;;;58.85;37.53;;;;;;;5.36;85.97;97488.44;1757141;82;21011;-82
2021/11/15 02:11:15;;;;;;;55.20;35.55;;;;;;;5.35;85.96;97486.80;1757204;81;21361;-83
2021/11/15 02:13:41;;;;;;;57.10;33.80;;;;;;;5.39;86.00;97486.93;1757175;81;20991;-82
2021/11/15 02:16:07;;;;;;;56.28;33.83;;;;;;;5.45;86.05;97485.61;1757196;81;20984;-82
2021/11/15 02:18:33;;;;;;;55.67;34.13;;;;;;;5.48;85.99;97480.20;1757301;82;20999;-82
2021/11/15 02:21:03;;;;;;;52.25;32.20;;;;;;;5.47;85.78;97486.77;1757247;81;20991;-82
2021/11/15 02:23:33;;;;;;;;;;;;;;;5.46;85.86;97482.56;1759691;82;21401;-82
2021/11/15 02:25:59;;;;;;;56.02;33.10;;;;;;;5.41;85.91;97486.33;1757576;81;20123;-82
2021/11/15 02:28:32;;;;;;;51.98;31.45;;;;;;;5.39;85.89;97486.93;1728659;82;21033;-82
2021/11/15 02:30:58;;;;;;;51.95;31.77;;;;;;;5.39;85.82;97492.56;1728678;83;21060;-82
2021/11/15 02:33:25;;;;;;;44.65;29.40;;;;;;;5.38;85.86;97494.31;1728770;83;20977;-83
2021/11/15 02:35:51;;;;;;;44.85;31.25;;;;;;;5.40;85.77;97491.14;1728953;83;21406;-82
2021/11/15 02:38:17;;;;;;;47.88;31.30;;;;;;;5.40;85.81;97487.28;1702047;83;21004;-82
2021/11/15 02:40:43;;;;;;;43.15;28.65;;;;;;;5.42;85.84;97485.86;1728774;83;21050;-82
2021/11/15 02:43:09;;;;;;;52.70;31.70;;;;;;;5.43;85.91;97489.60;1728960;83;21396;-82
2021/11/15 02:45:35;;;;;;;50.85;31.55;;;;;;;5.41;85.79;97483.76;1728878;83;21028;-82
2021/11/15 02:48:00;;;;;;;46.58;29.23;;;;;;;5.42;85.75;97485.39;1728879;83;20965;-82
2021/11/15 02:50:28;;;;;;;47.00;29.55;;;;;;;5.46;85.66;97490.30;1728825;83;21036;-82
2021/11/15 02:52:58;;;;;;;43.65;27.95;;;;;;;5.51;85.78;97482.53;1728682;83;21444;-82
2021/11/15 02:55:25;;;;;;;46.45;29.18;;;;;;;5.58;85.91;97486.27;1728809;83;21033;-82
2021/11/15 02:57:51;;;;;;;45.10;27.87;;;;;;;5.63;85.85;97493.63;1728776;83;21522;-82
2021/11/15 03:00:34;;;;;;;46.02;29.95;;;;;;;5.55;85.62;97494.25;1728783;83;21037;-82
2021/11/15 03:03:00;;;;;;;41.58;26.90;;;;;;;5.56;85.90;97496.36;1713869;83;20954;-82
2021/11/15 03:05:31;;;;;;;45.92;28.90;;;;;;;5.57;85.92;97491.08;1728718;83;21064;-82
2021/11/15 03:07:58;;;;;;;51.20;31.23;;;;;;;5.59;85.79;97494.34;1729017;83;21009;-82
2021/11/15 03:10:24;;;;;;;45.88;30.30;;;;;;;5.65;85.86;97495.61;1728851;83;21017;-82
2021/11/15 03:12:50;;;;;;;43.40;28.47;;;;;;;5.68;85.73;97494.06;1748404;80;21543;-82
2021/11/15 03:15:32;;;;;;;43.38;28.73;;;;;;;5.66;85.64;97498.53;1764868;81;20990;-82
2021/11/15 03:18:01;;;;;;;43.90;27.57;;;;;;;5.63;85.52;97498.78;1763708;81;22280;-82
2021/11/15 03:20:29;;;;;;;39.35;26.50;;;;;;;5.58;85.47;97506.89;1765052;81;21013;-82
2021/11/15 03:22:55;;;;;;;43.92;27.70;;;;;;;5.57;85.66;97501.86;1765030;81;21404;-82
2021/11/15 03:25:26;;;;;;;43.63;27.30;;;;;;;5.59;85.51;97490.95;1764874;81;20986;-82
2021/11/15 03:27:52;;;;;;;41.58;26.20;;;;;;;5.57;85.42;97498.81;1764067;81;21416;-82
2021/11/15 03:30:18;;;;;;;41.42;27.50;;;;;;;5.57;85.50;97494.13;1763063;81;21037;-82
2021/11/15 03:32:45;;;;;;;41.18;27.22;;;;;;;5.57;85.57;97498.00;1763202;81;21030;-82
2021/11/15 03:35:10;;;;;;;42.98;28.57;;;;;;;5.53;85.54;97498.72;1792832;80;20983;-82
2021/11/15 03:37:36;;;;;;;41.98;27.45;;;;;;;5.48;85.55;97498.72;1792897;80;20963;-82
2021/11/15 03:40:03;;;;;;;43.65;27.17;;;;;;;5.47;85.76;97503.53;1792979;80;21406;-82
2021/11/15 03:42:30;;;;;;;45.48;27.75;;;;;;;5.46;85.82;97502.72;1792500;80;22114;-82
2021/11/15 03:44:56;;;;;;;41.85;26.73;;;;;;;5.41;85.69;97504.84;1792852;80;20958;-82
2021/11/15 03:47:22;;;;;;;45.05;28.07;;;;;;;5.40;85.82;97508.37;1792741;80;21074;-82
2021/11/15 03:49:48;;;;;;;42.33;26.77;;;;;;;5.39;85.90;97506.73;1792858;80;20963;-82
2021/11/15 03:52:14;;;;;;;29.23;18.42;;;;;;;5.41;86.11;97503.09;1792873;80;21011;-82
2021/11/15 03:54:40;;;;;;;37.30;24.72;;;;;;;5.40;85.98;97499.34;1792793;80;21400;-82
2021/11/15 03:57:06;;;;;;;31.05;20.72;;;;;;;5.36;86.29;97498.75;1794774;80;20998;-82
2021/11/15 03:59:32;;;;;;;36.28;24.32;;;;;;;5.33;86.11;97498.18;1792780;80;21070;-82
2021/11/15 04:01:58;;;;;;;38.48;24.43;;;;;;;5.28;86.26;97496.45;1792919;80;21002;-82
2021/11/15 04:04:28;;;;;;;32.67;22.45;;;;;;;5.24;86.14;97490.72;1792777;80;20955;-82
2021/11/15 04:06:52;;;;;;;36.15;22.73;;;;;;;5.23;86.20;97491.66;1768352;80;21114;-82
2021/11/15 04:09:20;;;;;;;33.30;21.52;;;;;;;5.19;86.18;97485.09;1792787;80;21404;-82
2021/11/15 04:11:46;;;;;;;38.08;26.05;;;;;;;5.15;86.61;97479.84;1790749;79;21031;-82
2021/11/15 04:14:12;;;;;;;32.03;22.32;;;;;;;5.19;86.58;97493.30;1774439;80;21042;-82
2021/11/15 04:16:41;;;;;;;35.25;23.00;;;;;;;5.18;86.53;97491.66;1792792;80;21071;-82
2021/11/15 04:19:11;;;;;;;35.05;22.50;;;;;;;5.12;86.55;97483.48;1792899;80;21028;-82
2021/11/15 04:21:37;;;;;;;35.70;23.20;;;;;;;5.12;86.54;97482.19;1792901;80;21031;-82
2021/11/15 04:24:05;;;;;;;34.65;23.40;;;;;;;5.21;86.84;97490.97;1792629;80;20940;-82
2021/11/15 04:26:32;;;;;;;34.27;22.22;;;;;;;5.27;86.69;97486.61;1792326;80;21121;-83
2021/11/15 04:28:58;;;;;;;33.20;22.80;;;;;;;5.32;86.62;97484.95;1796398;79;21095;-82
2021/11/15 04:31:24;;;;;;;34.43;23.32;;;;;;;5.33;86.63;97483.53;1798016;80;20967;-82
2021/11/15 04:33:50;;;;;;;35.38;22.90;;;;;;;5.38;86.59;97483.19;1798284;80;20975;-82
2021/11/15 04:36:16;;;;;;;35.48;25.60;;;;;;;5.33;86.49;97486.11;1798160;80;21402;-82
2021/11/15 04:38:41;;;;;;;34.13;23.42;;;;;;;5.35;86.60;97479.07;1797999;80;20974;-82
2021/11/15 04:41:07;;;;;;;36.38;23.02;;;;;;;5.41;86.57;97470.87;1773896;80;20986;-82
2021/11/15 04:43:33;;;;;;;38.50;25.45;;;;;;;5.45;86.51;97473.20;1798079;80;21417;-82
2021/11/15 04:45:58;;;;;;;39.10;25.62;;;;;;;5.45;86.32;97475.77;1798124;80;21011;-82
2021/11/15 04:48:25;;;;;;;43.58;27.98;;;;;;;5.37;86.23;97478.98;1798433;80;20940;-82
2021/11/15 04:50:52;;;;;;;42.50;25.40;;;;;;;5.31;86.40;97484.13;1798145;80;21094;-82
2021/11/15 04:53:18;;;;;;;45.20;27.48;;;;;;;5.20;86.45;97485.44;1797969;80;21013;-82
2021/11/15 04:55:44;;;;;;;44.48;26.85;;;;;;;5.10;86.61;97485.83;1798121;80;21025;-82
2021/11/15 04:58:10;;;;;;;45.35;27.60;;;;;;;5.06;86.81;97478.00;1781709;80;20995;-82
2021/11/15 05:00:36;;;;;;;43.25;27.62;;;;;;;5.05;86.94;97481.52;1776747;80;20995;-82
2021/11/15 05:03:02;;;;;;;44.20;27.02;;;;;;;5.05;87.06;97478.48;1760814;81;20964;-82
2021/11/15 05:05:27;;;;;;;45.50;27.98;;;;;;;5.03;87.12;97477.75;1760801;81;21024;-82
2021/11/15 05:07:53;;;;;;;49.23;28.35;;;;;;;5.02;87.35;97482.55;1760823;81;20975;-82
2021/11/15 05:10:23;;;;;;;50.00;30.02;;;;;;;5.02;87.39;97476.59;1760826;81;21038;-82
2021/11/15 05:12:50;;;;;;;44.30;27.95;;;;;;;5.01;87.45;97480.92;1760514;81;21063;-82
2021/11/15 05:15:19;;;;;;;48.50;29.77;;;;;;;5.03;87.49;97479.51;1760784;81;21027;-82
2021/11/15 05:17:47;;;;;;;47.53;29.95;;;;;;;5.09;87.76;97481.16;1760679;81;21393;-82
2021/11/15 05:20:13;;;;;;;47.90;29.30;;;;;;;5.17;87.66;97477.95;1760827;81;21362;-82
2021/11/15 05:22:38;;;;;;;44.67;28.05;;;;;;;5.25;87.73;97477.37;1760861;81;20936;-82
2021/11/15 05:25:05;;;;;;;49.03;28.87;;;;;;;5.29;87.73;97477.47;1760752;81;20960;-82
2021/11/15 05:27:33;;;;;;;44.10;27.25;;;;;;;5.32;87.80;97479.32;1760209;81;21067;-82
2021/11/15 05:29:59;;;;;;;50.95;28.40;;;;;;;5.31;87.35;97478.98;1755464;82;20992;-82
2021/11/15 05:32:25;;;;;;;45.78;29.18;;;;;;;5.25;87.12;97479.47;1755685;82;21346;-82
2021/11/15 05:34:51;;;;;;;45.48;28.87;;;;;;;5.27;87.40;97473.72;1755838;82;20964;-82
2021/11/15 05:37:17;;;;;;;49.42;30.70;;;;;;;5.30;87.45;97480.39;1755731;82;21003;-82
2021/11/15 05:39:43;;;;;;;53.63;32.35;;;;;;;5.24;87.22;97482.99;1755778;82;20976;-82
2021/11/15 05:42:09;;;;;;;57.55;35.78;;;;;;;5.18;87.35;97487.32;1755523;82;20983;-82
2021/11/15 05:44:35;;;;;;;58.13;36.50;;;;;;;5.18;87.48;97482.17;1755644;82;20925;-82
2021/11/15 05:47:01;;;;;;;59.58;34.27;;;;;;;5.15;87.48;97479.84;1755717;82;21497;-82
2021/11/15 05:49:26;;;;;;;59.38;34.60;;;;;;;5.14;87.46;97480.78;1755573;82;20952;-82
2021/11/15 05:51:52;;;;;;;60.35;35.40;;;;;;;5.16;87.62;97485.34;1755842;82;20983;-82
2021/11/15 05:54:18;;;;;;;60.60;34.23;;;;;;;5.18;87.58;97487.80;1755677;82;21050;-82
2021/11/15 05:56:43;;;;;;;55.83;33.20;;;;;;;5.20;87.68;97485.91;1755793;82;20932;-82
2021/11/15 05:59:10;;;;;;;60.10;35.10;;;;;;;5.19;87.72;97493.30;1755587;82;21496;-82
2021/11/15 06:01:36;;;;;;;58.52;34.78;;;;;;;5.17;87.68;97488.73;1755657;82;20936;-82
2021/11/15 06:04:01;;;;;;;63.52;38.60;;;;;;;5.19;87.96;97495.40;1755474;82;21477;-82
2021/11/15 06:06:28;;;;;;;57.35;34.53;;;;;;;5.20;87.78;97493.17;1755638;82;21068;-82
2021/11/15 06:08:54;;;;;;;60.40;34.65;;;;;;;5.19;87.72;97499.27;1732352;82;21307;-82
2021/11/15 06:11:21;;;;;;;52.03;30.02;;;;;;;5.23;87.78;97506.30;1755541;82;21038;-82
2021/11/15 06:13:46;;;;;;;57.70;34.10;;;;;;;5.25;87.69;97500.09;1755693;82;21030;-82
2021/11/15 06:16:12;;;;;;;60.28;34.27;;;;;;;5.15;87.65;97505.61;1755790;82;21067;-82
2021/11/15 06:18:38;;;;;;;59.05;35.60;;;;;;;5.10;87.73;97507.73;1755679;82;21036;-82
2021/11/15 06:21:04;;;;;;;69.00;40.63;;;;;;;5.06;87.63;97511.50;1755762;82;21036;-82
2021/11/15 06:23:30;;;;;;;62.67;38.23;;;;;;;5.08;87.86;97503.17;1755730;82;21033;-82
2021/11/15 06:25:56;;;;;;;62.40;36.45;;;;;;;5.16;88.03;97510.29;1732331;82;21015;-82
2021/11/15 06:28:22;;;;;;;63.00;37.03;;;;;;;5.24;88.18;97515.20;1755287;82;21116;-82
2021/11/15 06:30:48;;;;;;;56.75;34.13;;;;;;;5.26;88.02;97517.66;1755666;82;21485;-82
2021/11/15 06:33:13;;;;;;;66.50;40.58;;;;;;;5.26;88.00;97514.61;1755661;82;20987;-82
2021/11/15 06:35:39;;;;;;;64.25;36.35;;;;;;;5.25;88.08;97514.73;1755738;82;20956;-82
2021/11/15 06:38:05;;;;;;;59.80;32.95;;;;;;;5.23;87.82;97526.45;1755659;82;21039;-82
2021/11/15 06:40:31;;;;;;;55.48;33.05;;;;;;;5.25;87.99;97525.04;1755617;82;21056;-82
2021/11/15 06:42:56;;;;;;;63.15;34.60;;;;;;;5.35;88.22;97524.64;1755866;82;21035;-82
2021/11/15 06:45:22;;;;;;;59.38;33.67;;;;;;;5.36;88.05;97532.25;1755455;82;21091;-82
2021/11/15 06:47:48;;;;;;;62.03;36.08;;;;;;;5.35;88.11;97534.48;1755649;82;21020;-82
2021/11/15 06:50:17;;;;;;;65.25;35.85;;;;;;;5.35;88.05;97533.66;1755716;82;21009;-82
2021/11/15 06:52:43;;;;;;;63.48;36.63;;;;;;;5.37;88.01;97534.39;1755696;82;21023;-82
2021/11/15 06:55:11;;;;;;;65.62;35.92;;;;;;;5.39;88.06;97539.77;1755669;82;21059;-82
2021/11/15 06:57:38;;;;;;;61.95;35.08;;;;;;;5.43;88.07;97537.29;1755636;82;20995;-82
2021/11/15 07:00:06;;;;;;;65.78;36.77;;;;;;;5.47;87.91;97541.72;1755637;80;21027;-82
2021/11/15 07:02:32;;;;;;;69.37;38.60;;;;;;;5.43;87.73;97540.34;1744461;80;21999;-82
2021/11/15 07:04:57;;;;;;;72.25;38.28;;;;;;;5.42;87.93;97539.98;1759275;81;20978;-82
2021/11/15 07:07:23;;;;;;;62.27;34.58;;;;;;;5.39;87.92;97543.63;1763061;81;21018;-82
2021/11/15 07:09:49;;;;;;;64.27;34.20;;;;;;;5.40;88.06;97548.32;1763198;81;21356;-82
2021/11/15 07:12:16;;;;;;;65.37;36.55;;;;;;;5.43;88.17;97550.65;1763378;81;20990;-82
2021/11/15 07:14:42;;;;;;;65.57;34.60;;;;;;;5.48;88.12;97540.78;1763244;81;20938;-82
2021/11/15 07:17:08;;;;;;;60.28;33.83;;;;;;;5.54;87.98;97544.66;1763315;81;21352;-83
2021/11/15 07:19:34;;;;;;;65.57;35.55;;;;;;;5.56;87.84;97545.34;1763085;81;20962;-82
2021/11/15 07:21:59;;;;;;;60.15;34.33;;;;;;;5.58;88.17;97545.57;1763463;81;20960;-82
2021/11/15 07:24:25;;;;;;;58.70;33.40;;;;;;;5.61;88.14;97547.90;1763130;81;20970;-82
2021/11/15 07:26:51;;;;;;;59.33;32.85;;;;;;;5.62;87.84;97543.56;1763163;81;21073;-82
2021/11/15 07:29:17;;;;;;;54.63;31.05;;;;;;;5.57;87.49;97540.06;1762969;81;21058;-82
2021/11/15 07:31:44;;;;;;;49.42;30.80;;;;;;;5.59;87.83;97538.66;1763243;81;21010;-82
2021/11/15 07:34:10;;;;;;;56.23;31.55;;;;;;;5.61;87.62;97540.16;1763345;81;20966;-82
2021/11/15 07:36:36;;;;;;;58.90;31.77;;;;;;;5.58;87.56;97546.05;1763310;81;20947;-82
2021/11/15 07:39:03;;;;;;;61.40;34.00;;;;;;;5.52;87.92;97541.35;1763132;81;21325;-82
2021/11/15 07:41:29;;;;;;;56.95;31.27;;;;;;;5.51;87.85;97540.53;1763293;81;21026;-82
2021/11/15 07:43:55;;;;;;;50.70;27.05;;;;;;;5.56;88.19;97536.33;1792964;80;21019;-82
2021/11/15 07:46:21;;;;;;;56.68;31.87;;;;;;;5.47;87.51;97533.99;1792710;80;21405;-82
2021/11/15 07:48:47;;;;;;;63.15;33.42;;;;;;;5.42;87.64;97543.39;1792794;80;20986;-82
2021/11/15 07:51:12;;;;;;;62.33;36.08;;;;;;;5.46;88.22;97545.25;1792988;80;20951;-82
2021/11/15 07:53:38;;;;;;;61.35;33.55;;;;;;;5.49;88.13;97545.00;1792834;80;20986;-83
2021/11/15 07:56:06;;;;;;;56.30;31.40;;;;;;;5.48;88.17;97548.98;1792840;80;21333;-82
2021/11/15 07:58:32;;;;;;;60.45;31.05;;;;;;;5.45;88.25;97549.23;1792814;80;20970;-82
2021/11/15 08:00:58;;;;;;;59.23;33.18;;;;;;;5.37;88.33;97548.56;1790270;79;20987;-82
2021/11/15 08:03:23;;;;;;;57.05;32.60;;;;;;;5.35;88.17;97548.66;1774748;80;20995;-82
2021/11/15 08:05:49;;;;;;;51.95;30.90;;;;;;;5.41;88.51;97550.77;1792765;80;21039;-82
2021/11/15 08:08:15;;;;;;;52.05;31.33;;;;;;;5.41;88.20;97550.77;1792864;80;20970;-82
2021/11/15 08:10:41;;;;;;;52.93;30.43;;;;;;;5.45;88.28;97550.05;1768618;80;21039;-82
2021/11/15 08:13:07;;;;;;;54.18;30.85;;;;;;;5.49;88.33;97551.44;1793067;80;21317;-82
2021/11/15 08:15:32;;;;;;;54.65;31.97;;;;;;;5.54;88.38;97550.62;1792777;80;20987;-82
2021/11/15 08:17:59;;;;;;;51.65;31.30;;;;;;;5.53;88.07;97548.99;1792790;80;21365;-82
2021/11/15 08:20:32;;;;;;;50.80;30.10;;;;;;;5.53;88.03;97545.56;1792733;80;20959;-82
2021/11/15 08:23:01;;;;;;;52.08;30.90;;;;;;;5.58;88.10;97551.20;1791829;80;21054;-82
2021/11/15 08:25:55;;;;;;;49.25;31.23;;;;;;;5.64;88.19;97558.44;1792130;80;21076;-82
2021/11/15 08:28:21;;;;;;;48.90;30.80;;;;;;;5.71;88.38;97553.16;1792759;79;20991;-83
2021/11/15 08:30:47;;;;;;;50.05;31.17;;;;;;;5.78;88.37;97556.86;1741175;80;21053;-82
2021/11/15 08:33:13;;;;;;;53.33;32.58;;;;;;;5.76;88.04;97560.04;1795135;80;21075;-82
2021/11/15 08:35:39;;;;;;;51.35;32.15;;;;;;;5.75;88.07;97558.88;1794993;80;21055;-83
2021/11/15 08:38:28;;;;;;;52.50;32.38;;;;;;;5.78;88.23;97559.44;1794893;80;21382;-82
2021/11/15 08:40:53;;;;;;;54.80;31.77;;;;;;;5.80;87.82;97558.84;1795115;80;20987;-82
2021/11/15 08:43:21;;;;;;;46.88;30.23;;;;;;;5.85;87.84;97567.49;1794941;80;21397;-82
2021/11/15 08:45:48;;;;;;;46.90;28.05;;;;;;;5.87;87.62;97570.80;1794919;80;21074;-82
2021/11/15 08:48:14;;;;;;;54.40;32.63;;;;;;;5.82;87.44;97567.28;1795029;80;21420;-82
2021/11/15 08:50:40;;;;;;;53.45;31.33;;;;;;;5.76;87.54;97560.52;1766305;80;21002;-82
2021/11/15 08:53:06;;;;;;;50.50;29.57;;;;;;;5.74;87.70;97565.80;1795031;80;20970;-81
2021/11/15 08:55:32;;;;;;;53.83;31.82;;;;;;;5.78;87.92;97566.36;1795081;80;21294;-82
2021/11/15 08:57:57;;;;;;;47.67;29.48;;;;;;;5.82;87.88;97569.04;1795045;80;21074;-82
2021/11/15 09:00:23;;;;;;;44.60;29.18;;;;;;;5.86;87.93;97567.41;1795019;80;21091;-82
2021/11/15 09:02:49;;;;;;;40.80;25.30;;;;;;;5.91;87.51;97565.30;1795090;80;20962;-82
2021/11/15 09:05:14;;;;;;;47.20;29.60;;;;;;;5.92;87.43;97560.48;1795027;80;20994;-82
2021/11/15 09:07:41;;;;;;;40.75;25.77;;;;;;;5.95;87.52;97564.56;1741387;80;21014;-82
2021/11/15 09:10:11;;;;;;;44.00;28.83;;;;;;;5.91;87.27;97569.63;1794951;80;20963;-82
2021/11/15 09:12:38;;;;;;;41.35;26.35;;;;;;;5.87;87.39;97569.04;1795126;80;20995;-82
2021/11/15 09:15:07;;;;;;;43.73;26.00;;;;;;;5.89;87.38;97567.62;1795131;80;20975;-82
2021/11/15 09:17:34;;;;;;;38.25;23.80;;;;;;;5.94;87.37;97568.91;1795009;80;21326;-82
2021/11/15 09:20:00;;;;;;;37.08;22.27;;;;;;;6.03;87.36;97563.96;1795086;80;20979;-82
2021/11/15 09:22:25;;;;;;;39.33;25.02;;;;;;;6.04;87.11;97572.05;1794874;80;20928;-82
2021/11/15 09:24:51;;;;;;;44.48;27.00;;;;;;;6.00;87.22;97576.14;1795047;80;21350;-82
2021/11/15 09:27:18;;;;;;;37.17;23.60;;;;;;;6.01;87.18;97573.91;1794792;80;20999;-82
2021/11/15 09:29:49;;;;;;;40.88;25.02;;;;;;;5.98;87.03;97568.19;1796383;79;21086;-82
2021/11/15 09:32:15;;;;;;;37.15;25.20;;;;;;;5.98;87.26;97563.84;1797857;80;21557;-82
2021/11/15 09:34:42;;;;;;;41.13;26.80;;;;;;;6.05;87.33;97562.07;1797587;80;21027;-82
2021/11/15 09:37:09;;;;;;;43.50;26.50;;;;;;;6.12;87.11;97564.02;1798100;80;21042;-82
2021/11/15 09:39:38;;;;;;;35.00;24.32;;;;;;;6.13;87.03;97565.66;1798039;80;21335;-82
2021/11/15 09:42:04;;;;;;;33.78;24.15;;;;;;;6.16;87.03;97562.81;1794738;80;21441;-82
2021/11/15 09:44:30;;;;;;;37.85;25.32;;;;;;;6.13;86.63;97561.78;1787397;80;20979;-82
2021/11/15 09:46:56;;;;;;;39.50;27.48;;;;;;;6.13;86.61;97564.36;1798064;80;21003;-82
2021/11/15 09:49:21;;;;;;;32.40;22.55;;;;;;;6.16;86.43;97565.87;1797493;80;21248;-82
2021/11/15 09:51:48;;;;;;;38.38;25.65;;;;;;;6.14;86.42;97564.70;1798116;80;21291;-82
2021/11/15 09:54:15;;;;;;;39.10;26.97;;;;;;;6.13;86.47;97563.07;1797742;80;21090;-82
2021/11/15 09:56:41;;;;;;;35.68;25.00;;;;;;;6.18;86.39;97566.56;1798010;80;20971;-82
2021/11/15 09:59:11;;;;;;;38.10;26.93;;;;;;;6.19;86.52;97565.17;1773699;80;21054;-82
2021/11/15 10:01:35;;;;;;;22.62;16.15;;;;;;;6.14;86.18;97566.47;1773780;80;21054;-82
2021/11/15 10:04:01;;;;;;;36.60;23.95;;;;;;;6.16;86.18;97562.00;1798048;80;21372;-82
2021/11/15 10:06:26;;;;;;;36.42;25.75;;;;;;;6.06;85.75;97557.26;1797992;80;21006;-82
2021/11/15 10:08:55;;;;;;;37.15;24.85;;;;;;;6.08;86.27;97556.19;1798125;80;21374;-82
2021/11/15 10:11:23;;;;;;;34.00;24.55;;;;;;;6.13;86.36;97560.49;1798168;80;21353;-82
2021/11/15 10:13:51;;;;;;;24.98;17.07;;;;;;;6.14;86.17;97563.89;1798101;80;21385;-82
2021/11/15 10:16:20;;;;;;;29.85;20.20;;;;;;;6.09;86.06;97559.58;1797838;80;20999;-82
2021/11/15 10:18:58;;;;;;;32.00;21.40;;;;;;;6.06;86.13;97561.13;1798023;80;20973;-82
2021/11/15 10:21:46;;;;;;;37.73;24.92;;;;;;;6.06;86.42;97555.97;1797902;80;20959;-82
2021/11/15 10:24:23;;;;;;;30.65;22.35;;;;;;;6.10;86.22;97553.48;1798026;80;21039;-82
2021/11/15 10:26:55;;;;;;;32.73;22.62;;;;;;;6.15;86.32;97555.20;1798056;80;21014;-82
2021/11/15 10:29:36;;;;;;;23.70;16.52;;;;;;;6.12;86.09;97552.88;1790205;80;21003;-82
2021/11/15 10:32:11;;;;;;;29.60;19.62;;;;;;;6.12;85.79;97549.83;1764502;81;21546;-82
2021/11/15 10:34:50;;;;;;;25.65;19.70;;;;;;;6.08;86.17;97548.92;1764926;81;21461;-82
2021/11/15 10:37:20;;;;;;;21.48;14.95;;;;;;;6.17;86.15;97558.47;1764233;80;21015;-82
2021/11/15 10:39:51;;;;;;;27.67;19.50;;;;;;;6.19;85.86;97550.98;1764812;81;21022;-82
2021/11/15 10:42:33;;;;;;;22.50;16.17;;;;;;;6.18;86.00;97558.38;1762045;81;21274;-82
2021/11/15 10:45:11;;;;;;;18.27;13.17;;;;;;;6.20;85.98;97553.90;1724212;83;21062;-82
2021/11/15 10:47:51;;;;;;;25.23;17.40;;;;;;;6.12;85.85;97552.88;1695600;85;21102;-82
2021/11/15 10:50:32;;;;;;;23.07;17.42;;;;;;;6.12;86.02;97554.16;1697405;84;21323;-82
2021/11/15 10:53:13;;;;;;;25.10;18.10;;;;;;;6.19;86.26;97552.27;1698805;84;21091;-82
2021/11/15 10:55:45;;;;;;;24.20;17.40;;;;;;;6.20;85.73;97557.77;1695567;85;21064;-82
2021/11/15 10:58:21;;;;;;;26.57;19.05;;;;;;;6.21;86.14;97558.12;1698847;84;20995;-82
2021/11/15 11:00:59;;;;;;;27.13;18.35;;;;;;;6.26;86.35;97554.67;1695589;85;21047;-82
2021/11/15 11:03:27;;;;;;;31.95;21.10;;;;;;;6.25;85.96;97554.33;1698647;84;21025;-82
2021/11/15 11:05:56;;;;;;;24.10;17.12;;;;;;;6.24;86.04;97548.83;1695685;85;21099;-82
2021/11/15 11:08:29;;;;;;;21.25;16.85;;;;;;;6.29;86.07;97551.02;1698676;84;20999;-82
2021/11/15 11:11:03;;;;;;;;;;;;;;;6.29;85.54;97551.02;1698306;85;21409;-82
2021/11/15 11:13:54;;;;;;;24.35;17.85;;;;;;;6.27;85.67;97545.17;1698736;84;20118;-82
2021/11/15 11:16:17;;;;;;;27.82;19.87;;;;;;;6.26;85.51;97548.22;1697558;84;20972;-82
2021/11/15 11:18:51;;;;;;;29.15;20.65;;;;;;;6.33;86.17;97554.98;1698742;84;21038;-82
2021/11/15 11:26:34;;;;;;;24.27;17.87;;;;;;;6.42;85.77;97549.54;1690254;85;20980;-82
2021/11/15 11:29:04;;;;;;;30.92;22.55;;;;;;;6.47;85.64;97554.66;1698898;82;21092;-82
2021/11/15 11:31:32;;;;;;;28.40;20.65;;;;;;;6.50;85.74;97556.98;1729278;83;21176;-82
2021/11/15 11:33:59;;;;;;;23.95;17.25;;;;;;;6.49;85.50;97561.80;1704724;83;21048;-82